createdAt,value
2022-08-03T00:04:52.225Z,44.47
2022-08-03T00:09:59.457Z,44.36
2022-08-03T00:15:11.076Z,44.38
2022-08-03T00:20:13.940Z,44.56
2022-08-03T00:25:21.159Z,44.18
2022-08-03T00:30:30.783Z,44.26
2022-08-03T00:35:36.843Z,44.08
2022-08-03T00:40:42.851Z,44.05
2022-08-03T00:45:50.161Z,43.93
2022-08-03T00:50:57.329Z,43.80
2022-08-03T00:56:04.572Z,43.70
2022-08-03T01:01:11.856Z,43.86
2022-08-03T01:06:18.948Z,44.27
2022-08-03T01:11:26.142Z,44.79
2022-08-03T01:16:36.790Z,45.18
2022-08-03T01:21:40.705Z,45.07
2022-08-03T01:26:47.899Z,44.59
2022-08-03T01:32:58.669Z,44.76
2022-08-03T01:37:02.229Z,45.01
2022-08-03T01:42:09.433Z,45.21
2022-08-03T01:47:16.565Z,45.81
2022-08-03T01:52:23.789Z,45.81
2022-08-03T01:57:31.084Z,45.76
2022-08-03T02:02:38.739Z,46.04
2022-08-03T02:07:45.446Z,46.11
2022-08-03T02:12:52.644Z,46.26
2022-08-03T02:17:59.818Z,46.37
2022-08-03T02:23:06.993Z,46.51
2022-08-03T02:28:14.164Z,46.86
2022-08-03T02:33:21.397Z,46.76
2022-08-03T02:38:28.564Z,46.94
2022-08-03T02:44:00.352Z,47.01
2022-08-03T02:48:42.950Z,46.99
2022-08-03T02:53:50.115Z,47.13
2022-08-03T02:58:57.337Z,47.22
2022-08-03T03:04:04.588Z,47.28
2022-08-03T03:09:11.838Z,47.30
2022-08-03T03:14:19.106Z,47.52
2022-08-03T03:19:26.297Z,47.41
2022-08-03T03:24:33.515Z,47.51
2022-08-03T03:29:40.737Z,47.76
2022-08-03T03:34:47.962Z,47.79
2022-08-03T03:39:55.175Z,47.83
2022-08-03T03:45:02.359Z,47.74
2022-08-03T03:50:09.616Z,48.23
2022-08-03T03:55:16.829Z,47.95
2022-08-03T04:00:24.048Z,48.01
2022-08-03T04:05:31.297Z,48.15
2022-08-03T04:10:39.080Z,48.16
2022-08-03T04:15:46.295Z,48.23
2022-08-03T04:20:53.468Z,48.24
2022-08-03T04:26:00.757Z,48.36
2022-08-03T04:31:07.974Z,48.57
2022-08-03T04:36:15.200Z,48.40
2022-08-03T04:41:22.338Z,48.61
2022-08-03T04:46:29.573Z,48.88
2022-08-03T04:51:36.754Z,48.96
2022-08-03T04:56:43.960Z,48.74
2022-08-03T05:01:51.178Z,49.09
2022-08-03T05:06:58.451Z,49.19
2022-08-03T05:12:05.604Z,48.97
2022-08-03T05:17:12.779Z,48.90
2022-08-03T05:22:20.021Z,48.97
2022-08-03T05:27:27.259Z,49.58
2022-08-03T05:32:34.462Z,49.26
2022-08-03T05:37:41.705Z,49.14
2022-08-03T05:42:48.955Z,48.83
2022-08-03T05:47:56.188Z,48.77
2022-08-03T05:53:03.395Z,48.67
2022-08-03T05:58:10.540Z,48.85
2022-08-03T06:03:17.725Z,48.75
2022-08-03T06:08:24.954Z,49.43
2022-08-03T06:13:32.177Z,49.11
2022-08-03T06:18:39.309Z,48.23
2022-08-03T06:23:54.532Z,48.35
2022-08-03T06:28:54.646Z,48.05
2022-08-03T06:34:34.303Z,47.88
2022-08-03T06:39:08.455Z,47.78
2022-08-03T06:44:15.597Z,47.99
2022-08-03T06:49:22.917Z,47.89
2022-08-03T06:54:32.885Z,47.80
2022-08-03T07:00:09.607Z,47.72
2022-08-03T07:04:45.389Z,47.66
2022-08-03T07:09:57.168Z,47.62
2022-08-03T07:15:02.622Z,47.34
2022-08-03T07:20:06.957Z,47.24
2022-08-03T07:25:14.133Z,47.26
2022-08-03T07:30:21.279Z,47.11
2022-08-03T07:35:29.051Z,46.86
2022-08-03T07:40:36.287Z,46.53
2022-08-03T07:45:43.538Z,46.26
2022-08-03T07:50:50.770Z,46.30
2022-08-03T07:55:58.048Z,46.01
2022-08-03T08:01:05.256Z,46.00
2022-08-03T08:06:12.458Z,45.91
2022-08-03T08:11:19.700Z,45.69
2022-08-03T08:16:26.955Z,45.53
2022-08-03T08:21:53.236Z,45.81
2022-08-03T08:26:41.347Z,45.70
2022-08-03T08:31:48.525Z,45.58
2022-08-03T08:36:55.737Z,45.77
2022-08-03T08:42:02.927Z,45.62
2022-08-03T08:47:10.124Z,45.82
2022-08-03T08:52:25.224Z,45.87
2022-08-03T08:57:41.890Z,45.93
2022-08-03T09:02:31.943Z,45.89
2022-08-03T09:07:39.201Z,46.13
2022-08-03T09:12:46.460Z,46.34
2022-08-03T09:17:53.609Z,45.87
2022-08-03T09:23:00.790Z,45.92
2022-08-03T09:28:07.951Z,45.79
2022-08-03T09:33:15.175Z,45.76
2022-08-03T09:38:22.347Z,45.63
2022-08-03T09:43:29.530Z,45.75
2022-08-03T09:48:36.715Z,45.67
2022-08-03T09:53:58.521Z,45.60
2022-08-03T09:58:51.179Z,45.66
2022-08-03T10:04:04.054Z,45.72
2022-08-03T10:09:05.670Z,45.94
2022-08-03T10:14:12.857Z,45.87
2022-08-03T10:19:20.065Z,46.01
2022-08-03T10:24:27.327Z,46.04
2022-08-03T10:29:34.512Z,45.73
2022-08-03T10:34:44.541Z,45.69
2022-08-03T10:39:49.003Z,45.58
2022-08-03T10:44:56.255Z,45.28
2022-08-03T10:50:03.443Z,45.34
2022-08-03T10:55:10.875Z,45.45
2022-08-03T11:00:17.979Z,45.36
2022-08-03T11:05:25.206Z,45.35
2022-08-03T11:10:32.474Z,45.59
2022-08-03T11:15:40.329Z,45.66
2022-08-03T11:20:47.466Z,45.84
2022-08-03T11:25:55.423Z,46.26
2022-08-03T11:31:01.931Z,46.10
2022-08-03T11:36:09.123Z,46.58
2022-08-03T11:41:16.322Z,46.86
2022-08-03T11:46:28.279Z,47.03
2022-08-03T11:51:30.845Z,47.00
2022-08-03T11:56:38.094Z,47.22
2022-08-03T12:01:45.335Z,47.20
2022-08-03T12:06:52.556Z,47.16
2022-08-03T12:12:01.256Z,48.13
2022-08-03T12:17:07.065Z,48.10
2022-08-03T12:22:14.268Z,46.48
2022-08-03T12:27:21.490Z,46.09
2022-08-03T12:32:28.777Z,45.99
2022-08-03T12:37:36.443Z,46.18
2022-08-03T12:42:43.241Z,45.80
2022-08-03T12:47:50.534Z,45.16
2022-08-03T12:52:57.776Z,45.41
2022-08-03T12:58:04.985Z,45.63
2022-08-03T13:03:39.796Z,46.45
2022-08-03T13:08:19.368Z,46.26
2022-08-03T13:13:26.667Z,45.33
2022-08-03T13:18:33.908Z,45.41
2022-08-03T13:23:41.103Z,45.30
2022-08-03T13:28:48.332Z,45.12
2022-08-03T13:33:55.769Z,45.12
2022-08-03T13:39:03.097Z,44.91
2022-08-03T13:44:28.307Z,44.83
2022-08-03T13:49:17.462Z,44.73
2022-08-03T13:54:24.712Z,44.61
2022-08-03T13:59:31.902Z,44.58
2022-08-03T14:04:39.087Z,44.58
2022-08-03T14:09:46.444Z,44.51
2022-08-03T14:14:56.970Z,44.49
2022-08-03T14:20:01.008Z,44.45
2022-08-03T14:25:09.787Z,44.46
2022-08-03T14:30:15.315Z,44.46
2022-08-03T14:35:22.499Z,44.39
2022-08-03T14:40:29.713Z,44.29
2022-08-03T14:45:36.971Z,44.42
2022-08-03T14:50:50.165Z,44.33
2022-08-03T14:55:52.031Z,44.28
2022-08-03T15:00:58.588Z,44.42
2022-08-03T15:06:05.840Z,44.06
2022-08-03T15:11:13.012Z,43.94
2022-08-03T15:16:20.220Z,43.75
2022-08-03T15:21:46.559Z,43.51
2022-08-03T15:26:39.270Z,43.52
2022-08-03T15:31:41.808Z,43.54
2022-08-03T15:36:49.052Z,43.55
2022-08-03T15:41:56.211Z,43.55
2022-08-03T15:47:03.592Z,43.50
2022-08-03T15:52:10.938Z,43.51
2022-08-03T15:57:18.690Z,43.62
2022-08-03T16:02:25.394Z,43.56
2022-08-03T16:07:32.589Z,43.64
2022-08-03T16:12:40.134Z,43.51
2022-08-03T16:17:47.330Z,43.53
2022-08-03T16:22:54.700Z,43.35
2022-08-03T16:28:07.924Z,43.35
2022-08-03T16:33:09.105Z,43.02
2022-08-03T16:38:19.139Z,43.10
2022-08-03T16:43:23.867Z,42.48
2022-08-03T16:48:31.103Z,42.16
2022-08-03T16:54:05.594Z,42.01
2022-08-03T16:58:46.846Z,42.04
2022-08-03T17:04:01.317Z,42.07
2022-08-03T17:09:01.717Z,42.04
2022-08-03T17:14:09.889Z,41.97
2022-08-03T17:19:16.153Z,41.90
2022-08-03T17:24:23.340Z,41.87
2022-08-03T17:29:30.648Z,41.95
2022-08-03T17:34:37.870Z,41.91
2022-08-03T17:40:00.301Z,41.94
2022-08-03T17:44:52.272Z,42.02
2022-08-03T17:49:59.423Z,42.06
2022-08-03T17:55:57.137Z,42.15
2022-08-03T18:00:13.842Z,42.24
2022-08-03T18:05:21.976Z,42.34
2022-08-03T18:10:28.378Z,42.45
2022-08-03T18:15:35.595Z,42.46
2022-08-03T18:20:42.863Z,42.54
2022-08-03T18:25:56.128Z,42.58
2022-08-03T18:30:57.863Z,42.60
2022-08-03T18:36:05.115Z,42.61
2022-08-03T18:41:17.129Z,42.52
2022-08-03T18:46:19.631Z,41.49
2022-08-03T18:51:33.928Z,42.54
2022-08-03T18:56:34.232Z,42.49
2022-08-03T19:01:57.449Z,42.67
2022-08-03T19:06:49.272Z,42.89
2022-08-03T19:12:12.553Z,43.35
2022-08-03T19:17:04.409Z,43.93
2022-08-03T19:22:12.021Z,44.78
2022-08-03T19:27:19.420Z,44.65
2022-08-03T19:32:27.811Z,44.91
2022-08-03T19:37:39.754Z,44.32
2022-08-03T19:42:42.885Z,44.01
2022-08-03T19:47:50.232Z,43.91
2022-08-03T19:52:57.505Z,44.08
2022-08-03T19:58:05.010Z,44.26
2022-08-03T20:03:21.872Z,44.33
2022-08-03T20:08:20.027Z,44.47
2022-08-03T20:13:28.311Z,44.38
2022-08-03T20:18:39.233Z,44.52
2022-08-03T20:24:01.931Z,44.46
2022-08-03T20:28:51.178Z,44.10
2022-08-03T20:33:57.430Z,43.98
2022-08-03T20:39:07.497Z,43.36
2022-08-03T20:44:11.809Z,43.11
2022-08-03T20:49:19.085Z,43.16
2022-08-03T20:54:31.326Z,43.42
2022-08-03T20:59:47.333Z,43.59
2022-08-03T21:04:40.714Z,43.64
2022-08-03T21:09:49.711Z,43.63
2022-08-03T21:14:55.200Z,43.68
2022-08-03T21:20:02.479Z,43.71
2022-08-03T21:25:09.802Z,43.74
2022-08-03T21:30:16.978Z,43.89
2022-08-03T21:35:24.230Z,43.89
2022-08-03T21:40:31.454Z,44.12
2022-08-03T21:45:40.394Z,44.30
2022-08-03T21:50:45.886Z,44.33
2022-08-03T21:55:53.210Z,44.35
2022-08-03T22:01:00.467Z,44.36
2022-08-03T22:06:07.705Z,44.48
2022-08-03T22:11:14.993Z,44.58
2022-08-03T22:16:22.123Z,44.66
2022-08-03T22:21:36.298Z,44.71
2022-08-03T22:26:36.607Z,44.62
2022-08-03T22:31:58.221Z,44.54
2022-08-03T22:36:51.070Z,44.61
2022-08-03T22:41:58.237Z,44.28
2022-08-03T22:47:05.511Z,43.88
2022-08-03T22:52:12.712Z,43.69
2022-08-03T22:57:20.330Z,43.63
2022-08-03T23:02:27.134Z,43.73
2022-08-03T23:07:34.397Z,43.63
2022-08-03T23:12:41.622Z,43.62
2022-08-03T23:17:57.988Z,43.65
2022-08-03T23:22:56.296Z,43.65
2022-08-03T23:28:05.500Z,43.50
2022-08-03T23:33:10.747Z,43.42
2022-08-03T23:38:21.943Z,43.52
2022-08-03T23:43:45.161Z,43.52
2022-08-03T23:48:32.459Z,43.62
2022-08-03T23:53:39.639Z,43.56
2022-08-03T23:58:46.809Z,43.50
